Time;durP1;ratioP1;P1;durP2;ratioP2;P2;SDS_P1;SDS_P2;PMS_P1;PMS_P2;Temp;Humidity;BMP_temperature;BMP_pressure;BME280_temperature;BME280_humidity;BME280_pressure;Samples;Min_cycle;Max_cycle;Signal;HPM_P1;HPM_P2
2021/04/07 00:03:08;;;;;;;11.53;3.63;;;;;-0.30;101110.00;;;;9669809;30;20287;-76
2021/04/07 00:08:10;;;;;;;15.77;3.50;;;;;-0.20;101115.00;;;;9686206;30;20216;-76
2021/04/07 00:13:14;;;;;;;9.90;3.73;;;;;-0.20;101117.00;;;;9690290;30;20212;-77
2021/04/07 00:18:15;;;;;;;13.10;3.00;;;;;-0.20;101128.00;;;;9689603;30;20264;-76
2021/04/07 00:23:17;;;;;;;12.37;3.00;;;;;-0.20;101130.00;;;;9689763;30;20216;-77
2021/04/07 00:28:21;;;;;;;15.50;3.07;;;;;-0.20;101142.00;;;;9689908;30;20215;-77
2021/04/07 00:33:22;;;;;;;9.27;2.53;;;;;-0.20;101146.00;;;;9703433;30;20681;-77
2021/04/07 00:38:24;;;;;;;13.87;2.80;;;;;-0.20;101145.00;;;;9703695;30;20215;-76
2021/04/07 00:43:25;;;;;;;7.10;2.23;;;;;-0.20;101151.00;;;;9689355;30;20207;-76
2021/04/07 00:48:27;;;;;;;8.90;2.83;;;;;-0.20;101161.00;;;;9703806;30;20239;-76
2021/04/07 00:53:29;;;;;;;11.03;3.23;;;;;-0.10;101160.00;;;;9674499;30;20302;-76
2021/04/07 00:58:31;;;;;;;7.37;2.63;;;;;0.00;101170.00;;;;9670715;30;20687;-76
2021/04/07 01:03:32;;;;;;;10.40;2.60;;;;;0.00;101185.00;;;;9653827;30;20273;-76
2021/04/07 01:08:35;;;;;;;9.20;3.60;;;;;0.10;101184.00;;;;9653007;30;20239;-76
2021/04/07 01:13:40;;;;;;;17.07;3.60;;;;;0.10;101186.00;;;;9666887;30;20693;-76
2021/04/07 01:18:42;;;;;;;9.13;2.90;;;;;0.00;101190.00;;;;9652938;30;20289;-76
2021/04/07 01:23:48;;;;;;;6.37;2.50;;;;;-0.10;101176.00;;;;9652140;30;20215;-76
2021/04/07 01:28:49;;;;;;;8.17;2.70;;;;;-0.10;101176.00;;;;9699334;30;20310;-76
2021/04/07 01:33:51;;;;;;;9.77;2.60;;;;;-0.20;101180.00;;;;9687991;30;20274;-76
2021/04/07 01:38:52;;;;;;;4.70;1.90;;;;;-0.30;101172.00;;;;9700896;30;20646;-76
2021/04/07 01:43:54;;;;;;;8.80;3.17;;;;;-0.30;101184.00;;;;9680606;30;20613;-76
2021/04/07 01:48:55;;;;;;;6.47;2.13;;;;;-0.30;101177.00;;;;9652868;30;20201;-77
2021/04/07 01:53:59;;;;;;;8.43;2.43;;;;;-0.30;101175.00;;;;9652017;30;20215;-76
2021/04/07 01:59:06;;;;;;;4.93;2.37;;;;;-0.30;101174.00;;;;9652118;30;20304;-77
2021/04/07 02:04:07;;;;;;;12.70;2.90;;;;;-0.20;101188.00;;;;9666840;30;20220;-77
2021/04/07 02:09:09;;;;;;;4.97;2.23;;;;;-0.10;101181.00;;;;9670361;30;20282;-77
2021/04/07 02:14:12;;;;;;;7.03;3.00;;;;;-0.20;101172.00;;;;9659134;30;20212;-76
2021/04/07 02:19:13;;;;;;;8.63;3.40;;;;;-0.20;101171.00;;;;9658343;30;20657;-76
2021/04/07 02:24:15;;;;;;;6.90;3.53;;;;;-0.20;101173.00;;;;9659387;30;20329;-77
2021/04/07 02:29:16;;;;;;;6.17;3.37;;;;;-0.10;101171.00;;;;9672050;30;20287;-76
2021/04/07 02:34:17;;;;;;;8.80;3.60;;;;;-0.10;101177.00;;;;9657583;30;20216;-76
2021/04/07 02:39:19;;;;;;;7.03;3.63;;;;;-0.10;101163.00;;;;9659041;30;20216;-76
2021/04/07 02:44:20;;;;;;;7.53;3.67;;;;;-0.10;101167.00;;;;9672494;30;20212;-77
2021/04/07 02:49:21;;;;;;;7.03;2.70;;;;;-0.10;101174.00;;;;9657958;30;20204;-76
2021/04/07 02:54:23;;;;;;;5.97;2.80;;;;;-0.10;101165.00;;;;9657592;30;20208;-77
2021/04/07 02:59:24;;;;;;;7.53;2.33;;;;;-0.10;101181.00;;;;9680411;30;20270;-77
2021/04/07 03:04:25;;;;;;;7.27;3.00;;;;;0.00;101178.00;;;;9678188;30;20665;-76
2021/04/07 03:09:27;;;;;;;7.97;4.57;;;;;0.00;101188.00;;;;9706883;30;20203;-77
2021/04/07 03:14:28;;;;;;;6.90;4.53;;;;;0.00;101201.00;;;;9677744;30;20207;-76
2021/04/07 03:19:35;;;;;;;8.90;4.40;;;;;0.10;101188.00;;;;9676971;30;20223;-76
2021/04/07 03:24:36;;;;;;;11.67;3.40;;;;;0.10;101195.00;;;;9692942;30;20224;-77
2021/04/07 03:29:38;;;;;;;11.80;3.67;;;;;0.10;101191.00;;;;9691282;30;20723;-75
2021/04/07 03:34:39;;;;;;;9.93;2.87;;;;;0.10;101185.00;;;;9705072;30;20747;-75
2021/04/07 03:39:40;;;;;;;10.43;3.00;;;;;0.10;101191.00;;;;9704471;30;20246;-75
2021/04/07 03:44:41;;;;;;;5.93;2.73;;;;;0.10;101192.00;;;;9704966;30;20211;-75
2021/04/07 03:49:43;;;;;;;8.90;2.87;;;;;0.10;101193.00;;;;9705392;30;20286;-75
2021/04/07 03:54:44;;;;;;;12.00;3.60;;;;;0.10;101203.00;;;;9704749;30;20199;-75
2021/04/07 03:59:46;;;;;;;17.03;3.23;;;;;0.10;101202.00;;;;9659708;30;20271;-75
2021/04/07 04:04:47;;;;;;;15.43;2.67;;;;;0.20;101209.00;;;;9668734;30;20204;-75
2021/04/07 04:09:48;;;;;;;8.70;2.33;;;;;0.20;101196.00;;;;9655086;30;20228;-75
2021/04/07 04:14:49;;;;;;;11.50;2.30;;;;;0.20;101210.00;;;;9661704;30;20262;-75
2021/04/07 04:19:52;;;;;;;12.63;2.40;;;;;0.20;101202.00;;;;9669022;30;20239;-75
2021/04/07 04:24:53;;;;;;;10.57;2.90;;;;;0.20;101215.00;;;;9653925;30;20224;-75
2021/04/07 04:29:55;;;;;;;19.67;4.17;;;;;0.20;101211.00;;;;9677861;30;20195;-75
2021/04/07 04:34:56;;;;;;;14.07;3.00;;;;;0.20;101213.00;;;;9703149;30;20212;-75
2021/04/07 04:39:57;;;;;;;17.00;2.93;;;;;0.20;101218.00;;;;9683785;30;20354;-75
2021/04/07 04:44:59;;;;;;;8.83;2.80;;;;;0.20;101213.00;;;;9683334;30;20789;-75
2021/04/07 04:50:03;;;;;;;8.47;2.60;;;;;0.20;101225.00;;;;9667751;30;20577;-75
2021/04/07 04:55:08;;;;;;;11.97;2.97;;;;;0.20;101224.00;;;;9653415;30;20243;-75
2021/04/07 05:00:10;;;;;;;11.27;2.87;;;;;0.30;101238.00;;;;9667015;30;20228;-75
2021/04/07 05:05:12;;;;;;;10.90;4.90;;;;;0.30;101233.00;;;;9639298;30;20627;-75
2021/04/07 05:10:13;;;;;;;11.63;3.30;;;;;0.30;101239.00;;;;9638545;30;20200;-75
2021/04/07 05:15:15;;;;;;;15.63;4.23;;;;;0.40;101246.00;;;;9681970;30;20203;-75
2021/04/07 05:20:16;;;;;;;10.13;3.10;;;;;0.40;101252.00;;;;9666803;30;20246;-75
2021/04/07 05:25:17;;;;;;;8.33;3.43;;;;;0.40;101255.00;;;;9681013;30;20370;-75
2021/04/07 05:30:19;;;;;;;13.37;3.40;;;;;0.50;101255.00;;;;9653083;30;20200;-75
2021/04/07 05:35:21;;;;;;;8.93;3.03;;;;;0.50;101267.00;;;;9651151;30;20278;-74
2021/04/07 05:40:22;;;;;;;7.77;2.93;;;;;0.50;101282.00;;;;9651658;30;20235;-74
2021/04/07 05:45:40;;;;;;;11.63;3.47;;;;;0.60;101306.00;;;;9684606;30;20596;-75
2021/04/07 05:50:45;;;;;;;12.40;3.17;;;;;0.60;101295.00;;;;9673304;30;20208;-74
2021/04/07 05:55:57;;;;;;;11.27;3.13;;;;;0.80;101304.00;;;;9673514;30;20209;-75
2021/04/07 06:00:58;;;;;;;7.47;3.47;;;;;0.80;101304.00;;;;9664315;30;20693;-74
2021/04/07 06:06:00;;;;;;;8.27;2.47;;;;;0.90;101312.00;;;;9693642;30;20625;-75
2021/04/07 06:11:02;;;;;;;8.23;3.30;;;;;0.90;101319.00;;;;9679349;30;20195;-74
2021/04/07 06:16:03;;;;;;;10.03;2.87;;;;;0.90;101326.00;;;;9694358;30;20199;-75
2021/04/07 06:21:05;;;;;;;5.80;2.73;;;;;0.80;101327.00;;;;9679040;30;20220;-74
2021/04/07 06:26:06;;;;;;;11.73;2.53;;;;;0.90;101329.00;;;;9692958;30;20645;-74
2021/04/07 06:31:08;;;;;;;15.10;2.80;;;;;0.90;101333.00;;;;9667936;30;20204;-75
2021/04/07 06:36:10;;;;;;;14.23;2.53;;;;;1.00;101315.00;;;;9657553;30;20220;-75
2021/04/07 06:41:11;;;;;;;5.27;1.73;;;;;1.20;101329.00;;;;9665339;30;21191;-75
2021/04/07 06:46:13;;;;;;;6.50;2.13;;;;;1.30;101335.00;;;;9707124;30;20211;-74
2021/04/07 06:51:18;;;;;;;7.97;2.83;;;;;1.30;101344.00;;;;9693261;30;20204;-74
2021/04/07 06:56:19;;;;;;;12.73;2.90;;;;;1.30;101337.00;;;;9677322;30;20276;-74
2021/04/07 07:01:21;;;;;;;6.13;2.00;;;;;1.60;101355.00;;;;9692123;30;20227;-74
2021/04/07 07:06:23;;;;;;;6.33;1.70;;;;;1.60;101370.00;;;;9683944;30;20216;-74
2021/04/07 07:11:27;;;;;;;3.67;1.20;;;;;1.60;101372.00;;;;9701990;30;20199;-75
2021/04/07 07:16:28;;;;;;;4.00;2.10;;;;;1.60;101364.00;;;;9662676;30;20197;-76
2021/04/07 07:21:30;;;;;;;3.50;1.63;;;;;1.60;101370.00;;;;9667832;30;20413;-76
2021/04/07 07:26:40;;;;;;;3.97;1.63;;;;;1.70;101376.00;;;;9699684;30;20236;-75
2021/04/07 07:31:41;;;;;;;7.17;1.70;;;;;1.60;101399.00;;;;9662714;30;20204;-75
2021/04/07 07:36:42;;;;;;;5.27;2.03;;;;;1.60;101406.00;;;;9688072;30;20638;-75
2021/04/07 07:41:43;;;;;;;3.27;1.83;;;;;1.70;101401.00;;;;9664346;30;20353;-75
2021/04/07 07:46:59;;;;;;;3.83;1.70;;;;;1.70;101411.00;;;;9698362;30;20289;-75
2021/04/07 07:52:02;;;;;;;9.27;2.60;;;;;1.80;101414.00;;;;9704440;30;20563;-75
2021/04/07 07:57:10;;;;;;;6.40;2.47;;;;;1.80;101432.00;;;;9693998;30;20211;-76
2021/04/07 08:02:24;;;;;;;9.50;2.87;;;;;2.00;101437.00;;;;9652556;30;20230;-75
2021/04/07 08:07:31;;;;;;;5.07;2.13;;;;;2.00;101441.00;;;;9670305;30;20214;-75
2021/04/07 08:12:33;;;;;;;3.43;1.53;;;;;2.20;101434.00;;;;9684777;30;20208;-75
2021/04/07 08:17:35;;;;;;;6.37;2.40;;;;;2.80;101436.00;;;;9658979;30;20247;-75
2021/04/07 08:22:38;;;;;;;8.63;2.43;;;;;3.20;101448.00;;;;9682641;30;20231;-75
2021/04/07 08:27:40;;;;;;;7.80;2.40;;;;;3.70;101459.00;;;;9680344;30;20230;-75
2021/04/07 08:32:44;;;;;;;10.70;2.47;;;;;4.10;101469.00;;;;9679501;30;20283;-75
2021/04/07 08:37:59;;;;;;;8.77;3.13;;;;;4.60;101481.00;;;;9682281;30;20638;-74
2021/04/07 08:43:03;;;;;;;13.57;2.67;;;;;4.70;101491.00;;;;9675395;30;20714;-74
2021/04/07 08:48:18;;;;;;;13.63;2.33;;;;;5.20;101490.00;;;;9690279;30;20200;-74
2021/04/07 08:53:20;;;;;;;14.63;2.73;;;;;5.50;101493.00;;;;9684717;30;20257;-74
2021/04/07 08:58:24;;;;;;;6.27;2.03;;;;;5.30;101500.00;;;;9668658;30;20227;-74
2021/04/07 09:03:30;;;;;;;8.70;2.70;;;;;5.50;101506.00;;;;9669811;30;20200;-75
2021/04/07 09:08:31;;;;;;;11.13;2.70;;;;;5.30;101495.00;;;;9666828;30;20213;-75
2021/04/07 09:13:37;;;;;;;9.13;2.80;;;;;5.10;101510.00;;;;9672588;30;20214;-76
2021/04/07 09:18:40;;;;;;;8.37;2.60;;;;;4.70;101507.00;;;;9680861;30;20219;-77
2021/04/07 09:23:59;;;;;;;7.80;2.73;;;;;4.50;101521.00;;;;9710747;30;20632;-78
2021/04/07 09:29:02;;;;;;;13.73;3.20;;;;;4.50;101524.00;;;;9673899;30;20572;-79
2021/04/07 09:34:03;;;;;;;11.47;4.10;;;;;4.70;101516.00;;;;9731069;30;20207;-81
2021/04/07 09:39:10;;;;;;;8.10;3.30;;;;;5.00;101524.00;;;;9696508;30;20241;-80
2021/04/07 09:44:14;;;;;;;10.47;3.33;;;;;5.10;101526.00;;;;9671709;30;20235;-80
2021/04/07 09:49:15;;;;;;;8.33;2.67;;;;;5.20;101536.00;;;;9679426;30;20486;-80
2021/04/07 09:54:22;;;;;;;11.53;3.73;;;;;5.50;101542.00;;;;9698590;30;20204;-80
2021/04/07 09:59:45;;;;;;;8.70;3.40;;;;;5.90;101541.00;;;;9676018;30;20323;-79
2021/04/07 10:04:47;;;;;;;13.07;3.57;;;;;6.30;101533.00;;;;9665410;30;20240;-79
2021/04/07 10:09:51;;;;;;;12.73;3.40;;;;;7.00;101532.00;;;;9717785;30;20235;-80
2021/04/07 10:14:54;;;;;;;10.03;3.17;;;;;7.60;101546.00;;;;9695249;30;20306;-80
2021/04/07 10:20:15;;;;;;;11.37;3.40;;;;;8.60;101550.00;;;;9675483;30;20223;-79
2021/04/07 10:25:24;;;;;;;9.50;4.47;;;;;8.20;101537.00;;;;9704771;30;20592;-79
2021/04/07 10:30:26;;;;;;;12.73;3.90;;;;;8.20;101548.00;;;;9737671;30;20203;-79
2021/04/07 10:35:32;;;;;;;8.63;3.80;;;;;7.90;101556.00;;;;9737197;30;20714;-78
2021/04/07 10:40:39;;;;;;;12.73;3.03;;;;;7.60;101552.00;;;;9687196;30;20223;-78
2021/04/07 10:45:43;;;;;;;15.93;4.40;;;;;7.60;101572.00;;;;9678109;30;20223;-78
2021/04/07 10:50:44;;;;;;;12.40;4.80;;;;;8.10;101573.00;;;;9656512;30;20203;-78
2021/04/07 10:55:46;;;;;;;14.57;4.00;;;;;8.30;101581.00;;;;9681651;30;20263;-77
2021/04/07 11:00:47;;;;;;;16.70;5.57;;;;;7.90;101576.00;;;;9661849;30;20222;-77
2021/04/07 11:05:48;;;;;;;8.80;3.37;;;;;8.10;101574.00;;;;9665250;30;20246;-78
2021/04/07 11:10:51;;;;;;;17.50;4.50;;;;;8.40;101592.00;;;;9690999;30;20230;-77
2021/04/07 11:15:53;;;;;;;12.67;2.73;;;;;7.90;101594.00;;;;9683999;30;20222;-77
2021/04/07 11:20:55;;;;;;;10.87;2.73;;;;;7.10;101607.00;;;;9708605;30;20903;-78
2021/04/07 11:25:56;;;;;;;10.83;2.83;;;;;6.50;101620.00;;;;9659461;30;20220;-78
2021/04/07 11:46:40;;;;;;;8.40;2.70;;;;;6.30;101633.00;;;;9694480;30;20220;-78
2021/04/07 11:51:42;;;;;;;9.80;2.93;;;;;6.90;101614.00;;;;9693770;30;20204;-77
2021/04/07 11:56:45;;;;;;;14.47;3.10;;;;;6.90;101631.00;;;;9691974;30;20231;-78
2021/04/07 12:01:49;;;;;;;16.33;3.33;;;;;7.10;101636.00;;;;9673620;30;20370;-78
2021/04/07 12:06:50;;;;;;;13.93;2.83;;;;;8.40;101621.00;;;;9684922;30;20231;-78
2021/04/07 12:11:51;;;;;;;11.23;2.97;;;;;9.00;101623.00;;;;9694282;30;20239;-78
2021/04/07 12:16:53;;;;;;;10.50;3.07;;;;;9.00;101627.00;;;;9679238;30;20228;-78
2021/04/07 12:21:55;;;;;;;10.00;2.80;;;;;9.00;101624.00;;;;9691520;30;20227;-77
2021/04/07 12:26:56;;;;;;;14.87;4.20;;;;;9.10;101623.00;;;;9673082;30;20914;-79
2021/04/07 12:31:58;;;;;;;9.43;2.40;;;;;9.30;101628.00;;;;9677645;30;20208;-77
2021/04/07 12:37:00;;;;;;;6.80;2.40;;;;;8.40;101624.00;;;;9689050;30;20767;-77
2021/04/07 12:42:06;;;;;;;7.77;2.97;;;;;8.00;101637.00;;;;9668817;30;20227;-77
2021/04/07 12:47:08;;;;;;;9.13;2.27;;;;;8.10;101646.00;;;;9669449;30;20206;-77
2021/04/07 12:52:09;;;;;;;8.47;2.27;;;;;7.50;101629.00;;;;9680471;30;20200;-77
2021/04/07 12:57:11;;;;;;;6.27;2.50;;;;;7.30;101631.00;;;;9702549;30;20562;-78
2021/04/07 13:02:12;;;;;;;8.37;2.50;;;;;7.80;101637.00;;;;9675169;30;20207;-77
2021/04/07 13:07:14;;;;;;;6.83;2.20;;;;;8.10;101635.00;;;;9704211;30;20746;-77
2021/04/07 13:12:15;;;;;;;9.13;2.77;;;;;8.00;101634.00;;;;9692152;30;20673;-77
2021/04/07 13:17:17;;;;;;;7.70;2.60;;;;;8.50;101631.00;;;;9675612;30;20234;-77
2021/04/07 13:22:19;;;;;;;12.03;2.93;;;;;9.70;101626.00;;;;9672233;30;20299;-77
2021/04/07 13:27:20;;;;;;;7.30;2.10;;;;;9.60;101631.00;;;;9668485;30;20228;-77
2021/04/07 13:32:25;;;;;;;9.43;2.23;;;;;10.90;101606.00;;;;9670573;30;20606;-77
2021/04/07 13:47:46;;;;;;;12.83;2.33;;;;;9.10;101637.00;;;;9674916;30;20196;-77
2021/04/07 13:52:50;;;;;;;9.83;2.03;;;;;9.10;101632.00;;;;9687715;30;20605;-77
2021/04/07 13:57:51;;;;;;;6.43;1.80;;;;;9.70;101625.00;;;;9674302;30;20231;-77
2021/04/07 14:02:53;;;;;;;6.20;1.77;;;;;11.20;101629.00;;;;9658729;30;20283;-78
2021/04/07 14:08:10;;;;;;;9.10;1.93;;;;;10.30;101608.00;;;;9679833;30;20538;-77
2021/04/07 14:13:16;;;;;;;11.53;2.83;;;;;9.20;101632.00;;;;9677905;30;20208;-77
2021/04/07 14:18:18;;;;;;;6.00;1.97;;;;;10.00;101635.00;;;;9669115;30;20230;-78
2021/04/07 14:23:20;;;;;;;6.13;2.37;;;;;10.90;101609.00;;;;9678059;30;20238;-77
2021/04/07 14:28:26;;;;;;;3.50;1.20;;;;;14.20;101613.00;;;;9685204;30;20219;-78
2021/04/07 14:33:28;;;;;;;3.83;1.53;;;;;14.40;101644.00;;;;9719859;30;20216;-78
2021/04/07 14:38:29;;;;;;;8.00;1.67;;;;;14.30;101618.00;;;;9710711;30;20223;-78
2021/04/07 14:43:31;;;;;;;7.87;1.67;;;;;10.60;101663.00;;;;9679681;30;20214;-78
2021/04/07 14:48:32;;;;;;;5.03;1.67;;;;;9.30;101662.00;;;;9684112;30;20196;-78
2021/04/07 14:53:37;;;;;;;3.80;1.63;;;;;10.80;101678.00;;;;9703569;30;20215;-78
2021/04/07 14:58:39;;;;;;;4.17;1.47;;;;;9.00;101623.00;;;;9672657;30;20224;-78
2021/04/07 15:03:40;;;;;;;4.10;1.73;;;;;7.60;101657.00;;;;9698843;30;20204;-78
2021/04/07 15:08:45;;;;;;;3.83;1.57;;;;;6.90;101703.00;;;;9688925;30;20207;-78
2021/04/07 15:13:46;;;;;;;4.50;1.53;;;;;6.70;101707.00;;;;9705379;30;20200;-78
2021/04/07 15:18:48;;;;;;;4.00;1.70;;;;;7.00;101682.00;;;;9692448;30;20219;-78
2021/04/07 15:23:52;;;;;;;7.20;1.77;;;;;7.20;101700.00;;;;9697457;30;20211;-78
2021/04/07 15:28:55;;;;;;;6.43;1.90;;;;;7.50;101707.00;;;;9697554;30;20842;-78
2021/04/07 15:33:57;;;;;;;5.80;1.50;;;;;7.50;101702.00;;;;9676960;30;20215;-78
2021/04/07 15:38:58;;;;;;;3.43;2.23;;;;;7.30;101709.00;;;;9683702;30;20242;-78
2021/04/07 15:44:00;;;;;;;5.60;2.03;;;;;7.00;101691.00;;;;9692125;30;20577;-78
2021/04/07 15:49:02;;;;;;;7.80;2.07;;;;;6.60;101707.00;;;;9666581;30;20196;-78
2021/04/07 15:54:04;;;;;;;9.83;2.30;;;;;6.50;101708.00;;;;9677642;30;20219;-77
2021/04/07 15:59:06;;;;;;;2.50;1.40;;;;;6.30;101702.00;;;;9659448;30;20550;-78
2021/04/07 16:04:07;;;;;;;4.80;1.77;;;;;6.20;101719.00;;;;9680715;30;20765;-77
2021/04/07 16:09:10;;;;;;;4.50;1.50;;;;;6.20;101719.00;;;;9667342;30;20262;-78
2021/04/07 16:14:12;;;;;;;2.93;1.73;;;;;6.40;101716.00;;;;9685571;30;20210;-78
2021/04/07 16:19:13;;;;;;;4.37;1.80;;;;;6.50;101727.00;;;;9686035;30;20669;-78
2021/04/07 16:24:15;;;;;;;3.57;1.70;;;;;6.50;101723.00;;;;9661823;30;20203;-78
2021/04/07 16:29:24;;;;;;;7.63;1.90;;;;;6.30;101730.00;;;;9687828;30;20205;-78
2021/04/07 16:34:26;;;;;;;2.77;1.47;;;;;6.30;101720.00;;;;9697693;30;20637;-78
2021/04/07 16:39:28;;;;;;;4.30;1.93;;;;;6.40;101724.00;;;;9686797;30;20235;-77
2021/04/07 16:44:29;;;;;;;7.17;1.77;;;;;6.40;101723.00;;;;9695678;30;20227;-78
2021/04/07 16:49:30;;;;;;;3.20;1.70;;;;;6.50;101728.00;;;;9691877;30;20192;-78
2021/04/07 16:54:32;;;;;;;4.53;1.53;;;;;6.10;101730.00;;;;9698710;30;20219;-77
2021/04/07 16:59:42;;;;;;;5.40;1.80;;;;;5.80;101732.00;;;;9676069;30;20220;-77
2021/04/07 17:04:44;;;;;;;3.87;1.60;;;;;5.60;101725.00;;;;9702556;30;20199;-77
2021/04/07 17:09:45;;;;;;;9.60;2.53;;;;;5.50;101729.00;;;;9675942;30;20195;-78
2021/04/07 17:14:47;;;;;;;9.37;2.73;;;;;5.40;101719.00;;;;9708804;30;20219;-78
2021/04/07 17:19:49;;;;;;;4.37;1.73;;;;;5.50;101731.00;;;;9690340;30;20255;-78
2021/04/07 17:24:50;;;;;;;7.70;2.10;;;;;5.30;101725.00;;;;9690182;30;20235;-77
2021/04/07 17:29:51;;;;;;;3.30;1.90;;;;;5.30;101727.00;;;;9672127;30;20204;-77
2021/04/07 17:34:59;;;;;;;4.50;2.63;;;;;5.10;101725.00;;;;9665357;30;20246;-78
2021/04/07 17:40:07;;;;;;;6.53;2.83;;;;;4.90;101738.00;;;;9631068;30;20315;-77
2021/04/07 17:45:09;;;;;;;4.53;2.00;;;;;4.60;101737.00;;;;9683091;30;20203;-78
2021/04/07 17:50:11;;;;;;;3.93;2.33;;;;;4.50;101741.00;;;;9696845;30;20208;-77
2021/04/07 17:55:13;;;;;;;3.80;2.00;;;;;4.30;101739.00;;;;9681745;30;20215;-77
2021/04/07 18:00:19;;;;;;;8.80;2.97;;;;;4.10;101734.00;;;;9697180;30;20345;-77
2021/04/07 18:05:22;;;;;;;9.57;2.63;;;;;4.00;101738.00;;;;9659876;30;20264;-77
2021/04/07 18:10:23;;;;;;;7.87;2.63;;;;;3.90;101734.00;;;;9678476;30;20204;-77
2021/04/07 18:15:26;;;;;;;5.23;2.07;;;;;3.80;101745.00;;;;9695338;30;20212;-77
2021/04/07 18:20:33;;;;;;;4.57;2.40;;;;;3.60;101745.00;;;;9708926;30;20763;-77
2021/04/07 18:25:35;;;;;;;7.20;2.53;;;;;3.40;101751.00;;;;9679927;30;20365;-77
2021/04/07 18:30:42;;;;;;;8.73;2.83;;;;;3.20;101765.00;;;;9693945;30;20290;-77
2021/04/07 18:35:45;;;;;;;10.40;3.67;;;;;3.10;101766.00;;;;9672981;30;20223;-77
2021/04/07 18:40:47;;;;;;;4.60;2.50;;;;;3.00;101766.00;;;;9659113;30;20228;-77
2021/04/07 18:45:49;;;;;;;6.27;2.70;;;;;3.00;101776.00;;;;9673402;30;20212;-77
2021/04/07 18:50:50;;;;;;;7.47;2.90;;;;;2.90;101771.00;;;;9672450;30;20531;-77
2021/04/07 18:55:51;;;;;;;7.27;3.60;;;;;2.90;101777.00;;;;9643642;30;20674;-77
2021/04/07 19:00:53;;;;;;;3.47;2.70;;;;;2.80;101777.00;;;;9657707;30;20681;-77
2021/04/07 19:05:55;;;;;;;11.67;5.47;;;;;2.60;101778.00;;;;9643784;30;20687;-77
2021/04/07 19:10:57;;;;;;;8.77;4.77;;;;;2.50;101788.00;;;;9656883;30;20594;-77
2021/04/07 19:15:58;;;;;;;11.73;4.17;;;;;2.40;101788.00;;;;9657330;30;20216;-77
2021/04/07 19:20:59;;;;;;;5.47;3.50;;;;;2.30;101789.00;;;;9656832;30;20781;-77
2021/04/07 19:26:02;;;;;;;8.47;3.30;;;;;2.30;101795.00;;;;9656989;30;20644;-77
2021/04/07 19:31:03;;;;;;;10.53;4.27;;;;;2.40;101796.00;;;;9671570;30;20211;-77
2021/04/07 19:36:05;;;;;;;4.97;3.60;;;;;2.50;101805.00;;;;9656715;30;20215;-77
2021/04/07 19:41:07;;;;;;;7.53;3.83;;;;;2.60;101802.00;;;;9656331;30;20217;-77
2021/04/07 19:46:08;;;;;;;6.57;3.00;;;;;2.70;101809.00;;;;9656452;30;20215;-77
2021/04/07 19:51:10;;;;;;;11.63;3.60;;;;;2.80;101810.00;;;;9656053;30;20208;-77
2021/04/07 19:56:22;;;;;;;9.37;3.67;;;;;2.80;101816.00;;;;9654323;30;20218;-77
2021/04/07 20:01:23;;;;;;;4.70;3.10;;;;;2.80;101816.00;;;;9662946;30;20365;-77
2021/04/07 20:06:25;;;;;;;10.40;4.40;;;;;2.80;101824.00;;;;9656186;30;20208;-77
2021/04/07 20:11:26;;;;;;;15.73;6.53;;;;;2.90;101813.00;;;;9640717;30;20260;-77
2021/04/07 20:16:27;;;;;;;12.83;6.43;;;;;2.90;101811.00;;;;9655936;30;20204;-77
2021/04/07 20:21:29;;;;;;;12.47;6.03;;;;;2.90;101819.00;;;;9640716;30;20234;-77
2021/04/07 20:26:30;;;;;;;7.50;4.70;;;;;2.90;101820.00;;;;9626566;30;20255;-77
2021/04/07 20:31:32;;;;;;;8.50;4.83;;;;;3.10;101825.00;;;;9657200;30;20279;-77
2021/04/07 20:36:33;;;;;;;10.73;5.00;;;;;3.10;101829.00;;;;9654604;30;20215;-77
2021/04/07 20:41:34;;;;;;;10.30;5.07;;;;;3.20;101826.00;;;;9654190;30;20251;-77
2021/04/07 20:46:35;;;;;;;10.33;5.10;;;;;3.20;101831.00;;;;9669110;30;20212;-77
2021/04/07 20:51:37;;;;;;;8.73;4.47;;;;;3.20;101833.00;;;;9669064;30;20200;-77
2021/04/07 20:56:38;;;;;;;9.37;5.40;;;;;3.20;101840.00;;;;9653933;30;20216;-77
2021/04/07 21:01:42;;;;;;;9.07;5.20;;;;;3.30;101846.00;;;;9653310;30;20227;-77
2021/04/07 21:06:43;;;;;;;8.33;4.43;;;;;3.20;101840.00;;;;9695179;30;20204;-78
2021/04/07 21:11:44;;;;;;;11.60;4.47;;;;;3.30;101849.00;;;;9709488;30;20200;-78
2021/04/07 21:16:46;;;;;;;8.83;4.93;;;;;3.20;101847.00;;;;9671993;30;20220;-78
2021/04/07 21:21:48;;;;;;;7.87;5.00;;;;;3.20;101851.00;;;;9647853;30;20286;-78
2021/04/07 21:26:49;;;;;;;6.30;4.10;;;;;3.20;101856.00;;;;9666138;30;20231;-78
2021/04/07 21:31:50;;;;;;;8.93;4.67;;;;;3.20;101856.00;;;;9666996;30;20208;-78
2021/04/07 21:36:52;;;;;;;8.83;4.47;;;;;3.20;101860.00;;;;9661666;30;20220;-78
2021/04/07 21:41:53;;;;;;;6.37;4.03;;;;;3.20;101861.00;;;;9661186;30;20212;-78
2021/04/07 21:46:54;;;;;;;8.97;4.40;;;;;3.20;101858.00;;;;9660907;30;20212;-78
2021/04/07 21:51:56;;;;;;;8.37;4.37;;;;;3.20;101870.00;;;;9667067;30;20286;-78
2021/04/07 21:56:57;;;;;;;6.40;4.37;;;;;3.20;101870.00;;;;9668204;30;20225;-79
2021/04/07 22:01:59;;;;;;;8.80;4.07;;;;;3.20;101875.00;;;;9656373;30;20216;-76
2021/04/07 22:07:03;;;;;;;8.67;4.30;;;;;3.20;101877.00;;;;9652800;30;20290;-76
2021/04/07 22:12:05;;;;;;;6.63;4.80;;;;;3.10;101875.00;;;;9653328;30;20236;-77
2021/04/07 22:17:06;;;;;;;7.03;4.23;;;;;3.10;101872.00;;;;9638634;30;20226;-77
2021/04/07 22:22:08;;;;;;;8.27;4.37;;;;;3.10;101886.00;;;;9638794;30;20231;-77
2021/04/07 22:27:25;;;;;;;10.60;4.90;;;;;3.10;101881.00;;;;9674180;30;20234;-77
2021/04/07 22:32:26;;;;;;;7.43;4.20;;;;;3.10;101893.00;;;;9710125;30;20281;-77
2021/04/07 22:37:28;;;;;;;6.40;4.20;;;;;3.10;101881.00;;;;9693674;30;20225;-77
2021/04/07 22:42:30;;;;;;;8.40;3.90;;;;;3.10;101888.00;;;;9692780;30;20239;-77
2021/04/07 22:47:31;;;;;;;8.13;3.90;;;;;3.10;101894.00;;;;9694254;30;20207;-77
2021/04/07 22:52:33;;;;;;;6.83;4.37;;;;;3.10;101900.00;;;;9694403;30;20211;-77
2021/04/07 22:57:34;;;;;;;9.23;4.27;;;;;3.10;101899.00;;;;9707735;30;20262;-76
2021/04/07 23:02:35;;;;;;;7.03;4.10;;;;;3.10;101900.00;;;;9678365;30;20636;-77
2021/04/07 23:07:37;;;;;;;8.43;3.63;;;;;3.00;101906.00;;;;9706991;30;20207;-77
2021/04/07 23:12:38;;;;;;;8.67;3.80;;;;;3.00;101913.00;;;;9693846;30;20203;-77
2021/04/07 23:17:39;;;;;;;8.03;3.80;;;;;3.00;101920.00;;;;9664583;30;20212;-77
2021/04/07 23:22:41;;;;;;;8.47;4.43;;;;;3.00;101917.00;;;;9707282;30;20250;-77
2021/04/07 23:27:43;;;;;;;8.37;3.77;;;;;3.00;101911.00;;;;9706926;30;20228;-77
2021/04/07 23:32:45;;;;;;;5.07;3.50;;;;;3.00;101914.00;;;;9675594;30;20237;-77
2021/04/07 23:37:47;;;;;;;5.87;3.57;;;;;3.00;101913.00;;;;9662440;30;20215;-77
2021/04/07 23:42:49;;;;;;;6.73;3.60;;;;;3.00;101929.00;;;;9661052;30;20267;-77
2021/04/07 23:47:50;;;;;;;8.90;4.13;;;;;2.90;101918.00;;;;9692321;30;20215;-77
2021/04/07 23:52:52;;;;;;;8.93;4.13;;;;;2.90;101925.00;;;;9692474;30;20258;-77
2021/04/07 23:57:53;;;;;;;7.30;3.97;;;;;2.90;101927.00;;;;9706278;30;20665;-77
